createdAt,value
2022-11-29T00:02:07.772Z,86.94
2022-11-29T00:04:39.868Z,87.16
2022-11-29T00:07:12.377Z,87.10
2022-11-29T00:09:45.565Z,87.00
2022-11-29T00:12:18.667Z,87.19
2022-11-29T00:14:52.847Z,87.04
2022-11-29T00:17:25.854Z,87.11
2022-11-29T00:20:00.165Z,86.92
2022-11-29T00:22:35.142Z,86.90
2022-11-29T00:25:09.341Z,86.88
2022-11-29T00:27:45.506Z,86.97
2022-11-29T00:30:18.456Z,86.75
2022-11-29T00:32:52.722Z,86.95
2022-11-29T00:35:25.162Z,87.13
2022-11-29T00:37:57.156Z,86.87
2022-11-29T00:40:36.618Z,86.86
2022-11-29T00:43:10.277Z,87.12
2022-11-29T00:45:44.735Z,86.93
2022-11-29T00:48:16.371Z,86.81
2022-11-29T00:50:50.157Z,87.20
2022-11-29T00:53:23.062Z,86.94
2022-11-29T00:55:58.716Z,87.08
2022-11-29T00:58:31.318Z,87.03
2022-11-29T01:01:09.918Z,87.08
2022-11-29T01:03:45.193Z,87.24
2022-11-29T01:06:18.798Z,87.19
2022-11-29T01:08:51.766Z,87.12
2022-11-29T01:11:40.153Z,87.16
2022-11-29T01:14:18.941Z,87.32
2022-11-29T01:16:55.450Z,87.39
2022-11-29T01:19:28.850Z,87.34
2022-11-29T01:22:04.009Z,87.29
2022-11-29T01:24:38.169Z,87.47
2022-11-29T01:27:13.519Z,87.51
2022-11-29T01:29:45.700Z,87.44
2022-11-29T01:32:33.689Z,87.31
2022-11-29T01:35:09.306Z,87.56
2022-11-29T01:37:42.711Z,87.54
2022-11-29T01:40:17.020Z,87.28
2022-11-29T01:42:52.186Z,87.64
2022-11-29T01:45:36.610Z,87.34
2022-11-29T01:48:15.656Z,87.52
2022-11-29T01:50:51.944Z,87.41
2022-11-29T01:53:23.939Z,87.56
2022-11-29T01:55:58.893Z,87.37
2022-11-29T01:58:36.387Z,87.60
2022-11-29T02:01:10.155Z,87.60
2022-11-29T02:03:42.340Z,87.52
2022-11-29T02:06:17.510Z,87.40
2022-11-29T02:08:50.074Z,87.50
2022-11-29T02:11:55.620Z,87.53
2022-11-29T02:14:43.856Z,87.44
2022-11-29T02:17:29.786Z,87.68
2022-11-29T02:24:11.955Z,87.52
2022-11-29T02:27:34.382Z,87.84
2022-11-29T02:34:07.936Z,87.67
2022-11-29T02:37:14.258Z,87.76
2022-11-29T02:39:58.034Z,87.78
2022-11-29T02:43:00.283Z,87.57
2022-11-29T02:45:42.756Z,87.60
2022-11-29T02:48:40.858Z,87.82
2022-11-29T02:51:23.531Z,87.85
2022-11-29T02:54:03.739Z,87.68
2022-11-29T02:56:42.076Z,87.67
2022-11-29T02:59:23.069Z,87.55
2022-11-29T03:02:06.589Z,87.86
2022-11-29T03:04:47.495Z,87.60
2022-11-29T03:07:25.066Z,87.61
2022-11-29T03:10:04.470Z,87.55
2022-11-29T03:12:44.611Z,87.73
2022-11-29T03:15:27.984Z,87.57
2022-11-29T03:18:14.428Z,87.71
2022-11-29T03:20:57.486Z,87.83
2022-11-29T03:23:37.018Z,87.74
2022-11-29T03:26:11.810Z,87.76
2022-11-29T03:28:49.586Z,88.10
2022-11-29T03:31:28.408Z,88.08
2022-11-29T03:34:10.231Z,87.45
2022-11-29T03:36:52.793Z,87.73
2022-11-29T03:39:30.245Z,87.88
2022-11-29T03:42:03.191Z,87.82
2022-11-29T03:44:40.952Z,88.17
2022-11-29T03:47:14.517Z,87.91
2022-11-29T03:50:14.049Z,88.07
2022-11-29T03:52:53.995Z,88.11
2022-11-29T03:55:50.075Z,87.97
2022-11-29T03:58:33.778Z,88.07
2022-11-29T04:01:28.154Z,88.06
2022-11-29T04:04:24.426Z,88.40
2022-11-29T04:07:16.349Z,88.45
2022-11-29T04:10:04.344Z,88.50
2022-11-29T04:13:10.310Z,88.40
2022-11-29T04:16:16.888Z,88.51
2022-11-29T04:19:26.693Z,88.45
2022-11-29T04:22:20.726Z,88.48
2022-11-29T04:25:23.435Z,88.42
2022-11-29T04:28:20.794Z,88.56
2022-11-29T04:31:02.160Z,88.68
2022-11-29T04:33:57.051Z,88.67
2022-11-29T04:36:50.957Z,88.85
2022-11-29T04:40:01.589Z,88.71
2022-11-29T04:42:54.653Z,88.58
2022-11-29T04:45:53.747Z,88.74
2022-11-29T04:48:44.230Z,88.44
2022-11-29T04:51:28.492Z,88.72
2022-11-29T04:54:10.449Z,88.76
2022-11-29T04:56:51.889Z,88.60
2022-11-29T04:59:39.774Z,88.86
2022-11-29T05:02:27.918Z,88.85
2022-11-29T05:05:15.679Z,88.58
2022-11-29T05:08:03.298Z,88.69
2022-11-29T05:10:41.438Z,88.47
2022-11-29T05:13:19.984Z,88.76
2022-11-29T05:16:09.621Z,88.76
2022-11-29T05:18:58.888Z,88.75
2022-11-29T05:21:40.023Z,88.72
2022-11-29T05:24:23.140Z,88.44
2022-11-29T05:27:04.878Z,88.61
2022-11-29T05:29:44.717Z,88.82
2022-11-29T05:32:29.971Z,88.77
2022-11-29T05:35:51.500Z,88.78
2022-11-29T05:38:40.299Z,88.88
2022-11-29T05:41:34.291Z,88.72
2022-11-29T05:44:19.889Z,88.78
2022-11-29T05:46:59.325Z,88.73
2022-11-29T05:49:44.308Z,88.88
2022-11-29T05:52:27.363Z,88.81
2022-11-29T05:55:18.741Z,88.79
2022-11-29T05:58:01.670Z,89.00
2022-11-29T06:00:50.825Z,89.12
2022-11-29T06:03:32.406Z,89.11
2022-11-29T06:06:12.698Z,89.02
2022-11-29T06:08:55.033Z,88.90
2022-11-29T06:11:34.576Z,88.99
2022-11-29T06:14:21.283Z,88.93
2022-11-29T06:17:20.139Z,88.89
2022-11-29T06:20:09.575Z,88.87
2022-11-29T06:22:56.834Z,89.08
2022-11-29T06:26:03.500Z,89.08
2022-11-29T06:28:45.299Z,89.13
2022-11-29T06:31:22.120Z,89.21
2022-11-29T06:34:02.088Z,89.04
2022-11-29T06:36:39.734Z,89.03
2022-11-29T06:39:13.624Z,88.90
2022-11-29T06:41:47.197Z,88.96
2022-11-29T06:44:19.550Z,88.92
2022-11-29T06:47:00.857Z,88.81
2022-11-29T06:49:38.859Z,89.08
2022-11-29T06:52:29.665Z,89.07
2022-11-29T06:55:11.968Z,89.03
2022-11-29T06:58:09.761Z,89.14
2022-11-29T07:00:51.933Z,89.00
2022-11-29T07:04:26.231Z,89.00
2022-11-29T07:06:59.334Z,89.09
2022-11-29T07:09:36.638Z,88.99
2022-11-29T07:12:09.835Z,88.94
2022-11-29T07:14:44.365Z,89.15
2022-11-29T07:17:25.309Z,89.06
2022-11-29T07:20:04.158Z,88.98
2022-11-29T07:22:51.537Z,88.89
2022-11-29T07:25:35.886Z,89.00
2022-11-29T07:28:23.464Z,89.14
2022-11-29T07:30:57.627Z,89.12
2022-11-29T07:33:42.638Z,89.16
2022-11-29T07:36:22.872Z,89.15
2022-11-29T07:39:05.077Z,88.88
2022-11-29T07:41:49.157Z,88.90
2022-11-29T07:44:34.362Z,88.89
2022-11-29T07:47:06.594Z,88.77
2022-11-29T07:49:41.800Z,88.87
2022-11-29T07:52:27.049Z,88.83
2022-11-29T07:55:08.714Z,88.80
2022-11-29T07:57:47.588Z,88.49
